Time;durP1;ratioP1;P1;durP2;ratioP2;P2;SDS_P1;SDS_P2;PMS_P1;PMS_P2;Temp;Humidity;BMP_temperature;BMP_pressure;BME280_temperature;BME280_humidity;BME280_pressure;Samples;Min_cycle;Max_cycle;Signal;HPM_P1;HPM_P2
2022/08/07 00:02:24;;;;;;;10.63;8.23;;;;;;;;;;5074157;28;20197;-83
2022/08/07 00:04:51;;;;;;;7.40;6.80;;;;;;;;;;5074327;28;20197;-82
2022/08/07 00:07:18;;;;;;;8.00;7.30;;;;;;;;;;5072715;28;20582;-83
2022/08/07 00:09:44;;;;;;;7.30;6.80;;;;;;;;;;5080922;28;20220;-83
2022/08/07 00:12:11;;;;;;;8.17;7.57;;;;;;;;;;5074294;28;20212;-82
2022/08/07 00:14:39;;;;;;;8.20;7.50;;;;;;;;;;5073293;28;20212;-83
2022/08/07 00:17:06;;;;;;;8.23;7.03;;;;;;;;;;5077260;28;20200;-83
2022/08/07 00:19:33;;;;;;;7.40;6.67;;;;;;;;;;5094377;28;20219;-83
2022/08/07 00:22:00;;;;;;;8.10;7.40;;;;;;;;;;5089277;28;20193;-83
2022/08/07 00:24:27;;;;;;;7.23;6.53;;;;;;;;;;5073640;28;20193;-82
2022/08/07 00:26:54;;;;;;;26.63;8.70;;;;;;;;;;5054526;28;20228;-82
2022/08/07 00:29:24;;;;;;;30.57;9.50;;;;;;;;;;5072657;28;20196;-84
2022/08/07 00:31:53;;;;;;;9.93;7.33;;;;;;;;;;5072625;28;20197;-83
2022/08/07 00:34:20;;;;;;;8.20;7.50;;;;;;;;;;5093163;28;20231;-80
2022/08/07 00:36:47;;;;;;;8.40;7.63;;;;;;;;;;5079270;28;20204;-84
2022/08/07 00:39:14;;;;;;;20.20;9.50;;;;;;;;;;5085446;28;20221;-83
2022/08/07 00:41:48;;;;;;;7.73;7.13;;;;;;;;;;5072709;28;20201;-82
2022/08/07 00:44:15;;;;;;;8.30;7.50;;;;;;;;;;5074180;28;20196;-82
2022/08/07 00:46:42;;;;;;;8.20;7.40;;;;;;;;;;5073252;28;20204;-83
2022/08/07 00:49:10;;;;;;;9.83;8.00;;;;;;;;;;5088493;28;20305;-83
2022/08/07 00:51:37;;;;;;;8.07;7.47;;;;;;;;;;5072447;28;20614;-84
2022/08/07 00:54:04;;;;;;;8.80;7.83;;;;;;;;;;5093985;28;20206;-83
2022/08/07 00:56:31;;;;;;;8.30;7.53;;;;;;;;;;5093495;28;20674;-84
2022/08/07 00:58:57;;;;;;;7.63;7.03;;;;;;;;;;5073639;28;20213;-83
2022/08/07 01:01:24;;;;;;;9.30;8.50;;;;;;;;;;5083865;28;20686;-83
2022/08/07 01:03:51;;;;;;;8.67;7.37;;;;;;;;;;5086244;28;20597;-83
2022/08/07 01:06:20;;;;;;;7.50;6.90;;;;;;;;;;5072880;28;20201;-83
2022/08/07 01:08:47;;;;;;;7.90;7.30;;;;;;;;;;5072188;28;20246;-84
2022/08/07 01:11:15;;;;;;;8.30;7.50;;;;;;;;;;5087916;28;20188;-83
2022/08/07 01:13:42;;;;;;;13.33;8.03;;;;;;;;;;5072192;28;20197;-83
2022/08/07 01:16:09;;;;;;;10.40;8.10;;;;;;;;;;5073279;28;20197;-83
2022/08/07 01:18:36;;;;;;;7.80;7.13;;;;;;;;;;5072926;28;20216;-83
2022/08/07 01:21:11;;;;;;;9.00;8.20;;;;;;;;;;5074352;28;20552;-83
2022/08/07 01:23:38;;;;;;;8.00;7.20;;;;;;;;;;5075194;28;20196;-83
2022/08/07 01:26:05;;;;;;;9.37;7.67;;;;;;;;;;5072669;28;20205;-82
2022/08/07 01:28:33;;;;;;;7.80;7.10;;;;;;;;;;5080061;28;20684;-83
2022/08/07 01:31:01;;;;;;;7.77;7.17;;;;;;;;;;5072620;28;20212;-83
2022/08/07 01:33:29;;;;;;;7.90;7.30;;;;;;;;;;5090947;28;20808;-83
2022/08/07 01:35:59;;;;;;;8.70;7.40;;;;;;;;;;5083243;28;20199;-84
2022/08/07 01:38:27;;;;;;;7.73;7.03;;;;;;;;;;5091448;28;20215;-83
2022/08/07 01:40:56;;;;;;;8.10;7.40;;;;;;;;;;5070999;28;20188;-83
2022/08/07 01:43:24;;;;;;;7.50;6.73;;;;;;;;;;5072366;28;20663;-83
2022/08/07 01:45:51;;;;;;;8.67;7.10;;;;;;;;;;5072538;28;20223;-84
2022/08/07 01:48:17;;;;;;;7.67;7.07;;;;;;;;;;5072852;28;20220;-83
2022/08/07 01:50:48;;;;;;;8.73;7.90;;;;;;;;;;5071745;28;20220;-84
2022/08/07 01:53:17;;;;;;;8.20;7.50;;;;;;;;;;5093193;28;20200;-83
2022/08/07 01:55:47;;;;;;;8.83;8.13;;;;;;;;;;5075373;28;20204;-83
2022/08/07 01:58:16;;;;;;;9.07;7.33;;;;;;;;;;5090208;28;20220;-83
2022/08/07 02:00:44;;;;;;;7.20;6.60;;;;;;;;;;5091816;28;20249;-83
2022/08/07 02:03:13;;;;;;;7.97;7.27;;;;;;;;;;5089554;28;20204;-83
2022/08/07 02:05:44;;;;;;;7.83;7.13;;;;;;;;;;5071854;28;20209;-83
2022/08/07 02:08:13;;;;;;;6.97;6.47;;;;;;;;;;5070560;28;20651;-83
2022/08/07 02:10:41;;;;;;;9.40;7.23;;;;;;;;;;5070744;28;20201;-84
2022/08/07 02:13:10;;;;;;;8.40;7.63;;;;;;;;;;5071048;28;20204;-83
2022/08/07 02:15:39;;;;;;;8.70;7.80;;;;;;;;;;5071901;28;20690;-83
2022/08/07 02:18:06;;;;;;;7.70;7.00;;;;;;;;;;5070394;28;20208;-83
2022/08/07 02:20:33;;;;;;;8.03;7.27;;;;;;;;;;5071015;28;20197;-83
2022/08/07 02:23:03;;;;;;;7.90;7.30;;;;;;;;;;5071723;28;20670;-83
2022/08/07 02:25:31;;;;;;;8.37;7.67;;;;;;;;;;5070314;28;20197;-83
2022/08/07 02:27:59;;;;;;;8.10;7.40;;;;;;;;;;5072094;28;20236;-83
2022/08/07 02:30:27;;;;;;;8.00;7.20;;;;;;;;;;5071230;28;20685;-83
2022/08/07 02:32:56;;;;;;;7.90;7.30;;;;;;;;;;5071602;28;20196;-83
2022/08/07 02:35:24;;;;;;;8.53;7.73;;;;;;;;;;5071932;28;20216;-83
2022/08/07 02:37:52;;;;;;;7.60;7.10;;;;;;;;;;5070509;28;20212;-84
2022/08/07 02:40:19;;;;;;;7.37;6.77;;;;;;;;;;5070486;28;20220;-84
2022/08/07 02:42:46;;;;;;;8.43;7.63;;;;;;;;;;5088769;28;20196;-84
2022/08/07 02:45:15;;;;;;;8.47;7.77;;;;;;;;;;5085660;28;20199;-84
2022/08/07 02:47:43;;;;;;;8.40;7.60;;;;;;;;;;5092007;28;20204;-83
2022/08/07 02:50:10;;;;;;;8.23;7.43;;;;;;;;;;5089950;28;20199;-83
2022/08/07 02:52:39;;;;;;;8.30;7.67;;;;;;;;;;5076830;28;20694;-83
2022/08/07 02:55:10;;;;;;;8.27;7.57;;;;;;;;;;5072010;28;20675;-83
2022/08/07 02:57:37;;;;;;;8.27;7.57;;;;;;;;;;5090589;28;20207;-83
2022/08/07 03:00:06;;;;;;;9.17;8.23;;;;;;;;;;5099574;28;20226;-83
2022/08/07 03:02:34;;;;;;;8.60;7.90;;;;;;;;;;5066788;28;20200;-83
2022/08/07 03:05:03;;;;;;;11.00;7.83;;;;;;;;;;5075911;28;20204;-83
2022/08/07 03:07:31;;;;;;;8.60;7.67;;;;;;;;;;5075778;28;20231;-83
2022/08/07 03:09:58;;;;;;;8.57;7.87;;;;;;;;;;5074241;28;20689;-83
2022/08/07 03:12:25;;;;;;;8.20;7.50;;;;;;;;;;5075191;28;20641;-83
2022/08/07 03:14:52;;;;;;;7.40;6.70;;;;;;;;;;5094091;28;20204;-84
2022/08/07 03:17:19;;;;;;;8.67;7.97;;;;;;;;;;5095532;28;20197;-84
2022/08/07 03:19:46;;;;;;;8.57;7.73;;;;;;;;;;5085016;28;20225;-91
2022/08/07 03:22:17;;;;;;;8.90;8.07;;;;;;;;;;5065639;28;20219;-91
2022/08/07 03:24:45;;;;;;;8.37;7.47;;;;;;;;;;5075617;28;20300;-91
2022/08/07 03:27:12;;;;;;;8.97;8.23;;;;;;;;;;5078215;28;20231;-93
2022/08/07 03:29:50;;;;;;;11.20;7.33;;;;;;;;;;5078536;28;20204;-93
2022/08/07 03:32:19;;;;;;;8.20;7.50;;;;;;;;;;5095979;28;20208;-89
2022/08/07 03:34:49;;;;;;;7.77;7.17;;;;;;;;;;5089067;28;20247;-91
2022/08/07 03:37:19;;;;;;;8.67;7.93;;;;;;;;;;5076450;28;20300;-92
2022/08/07 03:39:47;;;;;;;8.60;7.80;;;;;;;;;;5075365;28;20213;-91
2022/08/07 03:42:14;;;;;;;8.50;7.70;;;;;;;;;;5058443;28;20223;-92
2022/08/07 03:44:42;;;;;;;8.60;7.90;;;;;;;;;;5080091;28;20200;-92
2022/08/07 03:47:10;;;;;;;8.30;7.60;;;;;;;;;;5095261;28;20196;-92
2022/08/07 03:49:37;;;;;;;9.03;8.17;;;;;;;;;;5096188;28;20204;-91
2022/08/07 03:52:05;;;;;;;8.83;7.93;;;;;;;;;;5061674;28;20215;-91
2022/08/07 03:54:35;;;;;;;8.70;8.00;;;;;;;;;;5096526;28;20204;-93
2022/08/07 03:57:04;;;;;;;8.13;7.50;;;;;;;;;;5095506;28;20200;-92
2022/08/07 03:59:32;;;;;;;9.10;8.30;;;;;;;;;;5095788;28;20212;-92
2022/08/07 04:02:00;;;;;;;9.07;8.27;;;;;;;;;;5076739;28;20208;-93
2022/08/07 04:04:28;;;;;;;11.40;8.63;;;;;;;;;;5095498;28;20200;-93
2022/08/07 04:06:55;;;;;;;9.50;8.50;;;;;;;;;;5095572;28;20200;-93
2022/08/07 04:09:24;;;;;;;10.40;8.73;;;;;;;;;;5077932;28;20200;-92
2022/08/07 04:11:55;;;;;;;9.43;8.53;;;;;;;;;;5078093;28;20200;-93
2022/08/07 04:14:22;;;;;;;10.43;9.33;;;;;;;;;;5095536;28;20200;-92
2022/08/07 04:16:49;;;;;;;9.23;8.30;;;;;;;;;;5077608;28;20208;-92
2022/08/07 04:19:16;;;;;;;8.50;7.70;;;;;;;;;;5077887;28;20216;-91
2022/08/07 04:21:43;;;;;;;9.53;8.30;;;;;;;;;;5078248;28;20200;-89
2022/08/07 04:24:11;;;;;;;10.67;8.53;;;;;;;;;;5095010;28;20215;-94
2022/08/07 04:26:39;;;;;;;14.60;9.83;;;;;;;;;;5095234;28;20204;-94
2022/08/07 04:29:10;;;;;;;11.13;10.20;;;;;;;;;;5076460;28;20230;-93
2022/08/07 04:31:38;;;;;;;14.33;12.97;;;;;;;;;;5095747;28;20200;-94
2022/08/07 04:34:05;;;;;;;14.63;13.07;;;;;;;;;;5077874;28;20200;-95
2022/08/07 04:36:33;;;;;;;14.27;12.83;;;;;;;;;;5060779;28;20226;-93
2022/08/07 04:39:00;;;;;;;16.63;14.67;;;;;;;;;;5094089;28;20629;-94
2022/08/07 04:41:27;;;;;;;11.37;10.37;;;;;;;;;;5044351;28;20550;-93
2022/08/07 04:43:54;;;;;;;9.47;8.57;;;;;;;;;;5094790;28;20208;-95
2022/08/07 04:46:32;;;;;;;10.10;9.10;;;;;;;;;;5060771;28;20257;-94
2022/08/07 04:49:05;;;;;;;8.93;8.13;;;;;;;;;;5086400;28;20572;-93
2022/08/07 04:51:39;;;;;;;8.90;8.10;;;;;;;;;;5077336;28;20254;-94
2022/08/07 04:54:11;;;;;;;9.47;8.43;;;;;;;;;;5076967;28;20204;-94
2022/08/07 04:56:43;;;;;;;10.33;8.70;;;;;;;;;;5085320;28;20660;-94
2022/08/07 04:59:15;;;;;;;8.83;8.13;;;;;;;;;;5077839;28;20228;-94
2022/08/07 05:01:49;;;;;;;8.83;8.10;;;;;;;;;;5075565;28;20208;-94
2022/08/07 05:04:19;;;;;;;8.43;7.73;;;;;;;;;;5074225;28;20596;-92
2022/08/07 05:06:53;;;;;;;8.10;7.50;;;;;;;;;;5073373;28;20205;-94
2022/08/07 05:09:26;;;;;;;12.57;9.23;;;;;;;;;;5040502;28;20247;-94
2022/08/07 05:11:54;;;;;;;8.80;7.90;;;;;;;;;;5056680;28;20197;-93
2022/08/07 05:14:27;;;;;;;9.70;8.57;;;;;;;;;;5056866;28;20231;-94
2022/08/07 05:16:59;;;;;;;8.77;7.97;;;;;;;;;;5074526;28;20644;-94
2022/08/07 05:19:31;;;;;;;8.90;8.10;;;;;;;;;;5075949;28;20315;-94
2022/08/07 05:22:00;;;;;;;10.10;8.40;;;;;;;;;;5074175;28;20200;-92
2022/08/07 05:24:28;;;;;;;8.37;7.57;;;;;;;;;;5056372;28;20205;-92
2022/08/07 05:26:58;;;;;;;8.00;7.40;;;;;;;;;;5056511;28;20256;-92
2022/08/07 05:29:26;;;;;;;9.17;8.37;;;;;;;;;;5073845;28;20193;-92
2022/08/07 05:31:53;;;;;;;7.93;7.23;;;;;;;;;;5079743;28;20200;-94
2022/08/07 05:34:31;;;;;;;36.47;9.77;;;;;;;;;;5084605;28;20608;-93
2022/08/07 05:37:00;;;;;;;8.77;7.90;;;;;;;;;;5079387;28;20206;-84
2022/08/07 05:39:27;;;;;;;7.50;6.80;;;;;;;;;;5073129;28;20282;-83
2022/08/07 05:41:55;;;;;;;8.03;7.37;;;;;;;;;;5072703;28;20201;-84
2022/08/07 05:44:22;;;;;;;8.70;7.90;;;;;;;;;;5055273;28;20196;-84
2022/08/07 05:46:50;;;;;;;8.63;7.93;;;;;;;;;;5080547;28;20200;-85
2022/08/07 05:49:18;;;;;;;8.90;7.50;;;;;;;;;;5085466;28;20235;-83
2022/08/07 05:51:47;;;;;;;7.73;7.03;;;;;;;;;;5071066;28;20220;-84
2022/08/07 05:54:14;;;;;;;8.20;7.50;;;;;;;;;;5083642;28;20200;-85
2022/08/07 05:56:41;;;;;;;8.80;7.40;;;;;;;;;;5083010;28;20201;-84
2022/08/07 05:59:12;;;;;;;8.50;7.70;;;;;;;;;;5089223;28;20261;-85
2022/08/07 06:01:40;;;;;;;9.73;8.03;;;;;;;;;;5073014;28;20571;-84
2022/08/07 06:04:07;;;;;;;9.33;7.60;;;;;;;;;;5070411;28;20686;-84
2022/08/07 06:06:35;;;;;;;7.47;6.73;;;;;;;;;;5037782;28;20209;-84
2022/08/07 06:09:03;;;;;;;8.37;7.57;;;;;;;;;;5071275;28;20204;-84
2022/08/07 06:11:33;;;;;;;7.20;6.60;;;;;;;;;;5071352;28;20209;-84
2022/08/07 06:14:00;;;;;;;7.00;6.30;;;;;;;;;;5054354;28;20242;-85
2022/08/07 06:16:29;;;;;;;8.67;7.63;;;;;;;;;;5076219;28;20239;-84
2022/08/07 06:18:56;;;;;;;7.80;7.13;;;;;;;;;;5071938;28;20197;-85
2022/08/07 06:21:24;;;;;;;7.93;7.23;;;;;;;;;;5072145;28;20229;-85
2022/08/07 06:23:51;;;;;;;15.83;8.37;;;;;;;;;;5054459;28;20201;-84
2022/08/07 06:26:20;;;;;;;7.63;7.00;;;;;;;;;;5053466;28;20196;-85
2022/08/07 06:28:49;;;;;;;10.07;7.33;;;;;;;;;;5054177;28;20598;-84
2022/08/07 06:31:15;;;;;;;7.17;6.67;;;;;;;;;;5072222;28;20287;-84
2022/08/07 06:33:43;;;;;;;7.30;6.70;;;;;;;;;;5071892;28;20610;-83
2022/08/07 06:36:10;;;;;;;7.83;7.13;;;;;;;;;;5053767;28;20201;-84
2022/08/07 06:38:37;;;;;;;8.17;6.70;;;;;;;;;;5073196;28;20197;-84
2022/08/07 06:41:08;;;;;;;8.63;7.23;;;;;;;;;;5073833;28;20219;-83
2022/08/07 06:43:37;;;;;;;7.53;6.83;;;;;;;;;;5081620;28;20291;-84
2022/08/07 06:46:05;;;;;;;7.43;6.73;;;;;;;;;;5072373;28;20205;-84
2022/08/07 06:48:32;;;;;;;6.87;6.27;;;;;;;;;;5037399;28;20201;-84
2022/08/07 06:51:00;;;;;;;7.10;6.50;;;;;;;;;;5053662;28;20227;-84
2022/08/07 06:53:27;;;;;;;7.37;6.67;;;;;;;;;;5072390;28;20280;-81
2022/08/07 06:55:55;;;;;;;7.20;6.60;;;;;;;;;;5072002;28;20207;-80
2022/08/07 06:58:23;;;;;;;6.47;5.87;;;;;;;;;;5072081;28;20196;-80
2022/08/07 07:00:52;;;;;;;6.63;6.03;;;;;;;;;;5071648;28;20221;-81
2022/08/07 07:03:19;;;;;;;7.35;6.78;;;;;;;;;;5072101;28;20576;-80
2022/08/07 07:05:46;;;;;;;6.53;6.03;;;;;;;;;;5091427;28;20200;-83
2022/08/07 07:08:13;;;;;;;6.85;5.93;;;;;;;;;;5091613;28;20196;-82
2022/08/07 07:10:40;;;;;;;7.68;6.38;;;;;;;;;;5091692;28;20731;-82
2022/08/07 07:13:12;;;;;;;6.35;5.75;;;;;;;;;;5090725;28;20196;-80
2022/08/07 07:15:43;;;;;;;7.22;6.65;;;;;;;;;;5091995;28;20228;-84
2022/08/07 07:18:15;;;;;;;6.57;6.07;;;;;;;;;;5086454;28;20190;-82
2022/08/07 07:20:45;;;;;;;8.20;6.60;;;;;;;;;;5072161;28;20220;-90
2022/08/07 07:23:13;;;;;;;7.43;6.82;;;;;;;;;;5073358;28;20209;-91
2022/08/07 07:25:41;;;;;;;6.63;6.13;;;;;;;;;;5073271;28;20341;-90
2022/08/07 07:28:12;;;;;;;7.05;6.35;;;;;;;;;;5054207;28;20235;-90
2022/08/07 07:30:49;;;;;;;7.18;6.57;;;;;;;;;;5071278;28;20231;-90
2022/08/07 07:33:18;;;;;;;6.30;5.72;;;;;;;;;;5038316;28;20197;-89
2022/08/07 07:35:48;;;;;;;5.00;4.55;;;;;;;;;;5055121;28;20255;-90
2022/08/07 07:38:16;;;;;;;5.68;5.20;;;;;;;;;;5074469;28;20205;-90
2022/08/07 07:40:43;;;;;;;5.43;4.95;;;;;;;;;;5058035;28;20221;-90
2022/08/07 07:43:11;;;;;;;4.85;4.40;;;;;;;;;;5042018;28;20204;-89
2022/08/07 07:45:39;;;;;;;4.75;4.45;;;;;;;;;;5075391;28;20229;-89
2022/08/07 07:48:07;;;;;;;6.57;5.28;;;;;;;;;;5075171;28;20204;-88
2022/08/07 07:50:37;;;;;;;6.57;5.95;;;;;;;;;;5076313;28;20201;-89
2022/08/07 07:53:04;;;;;;;5.78;5.25;;;;;;;;;;5075826;28;20204;-89
2022/08/07 07:55:32;;;;;;;7.25;6.65;;;;;;;;;;5074754;28;20201;-89
2022/08/07 07:57:59;;;;;;;6.07;5.53;;;;;;;;;;5057949;28;20663;-88
2022/08/07 08:00:28;;;;;;;6.95;5.68;;;;;;;;;;5057504;28;20679;-89
2022/08/07 08:02:58;;;;;;;6.20;5.10;;;;;;;;;;5057750;28;20250;-89
2022/08/07 08:05:25;;;;;;;4.63;4.32;;;;;;;;;;5057522;28;20207;-89
2022/08/07 08:07:54;;;;;;;5.82;5.30;;;;;;;;;;5041074;28;20585;-89
2022/08/07 08:10:22;;;;;;;5.45;5.05;;;;;;;;;;5075764;28;20201;-88
2022/08/07 08:12:49;;;;;;;7.55;5.88;;;;;;;;;;5075154;28;20204;-89
2022/08/07 08:15:16;;;;;;;6.05;5.55;;;;;;;;;;5058045;28;20192;-91
2022/08/07 08:17:44;;;;;;;6.53;5.90;;;;;;;;;;5057062;28;20258;-89
2022/08/07 08:20:12;;;;;;;6.50;5.40;;;;;;;;;;5057410;28;20250;-89
2022/08/07 08:28:15;;;;;;;5.78;5.28;;;;;;;;;;5074896;28;20224;-90
2022/08/07 08:30:43;;;;;;;7.30;5.63;;;;;;;;;;5057281;28;20687;-88
2022/08/07 08:33:15;;;;;;;5.65;5.15;;;;;;;;;;5057517;28;20201;-88
2022/08/07 08:35:44;;;;;;;6.32;5.72;;;;;;;;;;5057691;28;20655;-88
2022/08/07 08:38:13;;;;;;;6.05;5.57;;;;;;;;;;5074552;28;20399;-87
2022/08/07 08:40:46;;;;;;;7.20;4.57;;;;;;;;;;5084202;28;20215;-89
2022/08/07 08:43:19;;;;;;;5.13;4.65;;;;;;;;;;5095047;28;20663;-89
2022/08/07 08:45:50;;;;;;;5.63;5.10;;;;;;;;;;5073874;28;20196;-89
2022/08/07 08:48:24;;;;;;;5.15;4.65;;;;;;;;;;5074405;28;20208;-88
2022/08/07 08:50:56;;;;;;;4.75;4.38;;;;;;;;;;5073414;28;20197;-88
2022/08/07 08:53:32;;;;;;;5.30;4.85;;;;;;;;;;5074409;28;20204;-87
2022/08/07 08:56:03;;;;;;;5.03;4.57;;;;;;;;;;5072534;28;20201;-88
2022/08/07 08:58:36;;;;;;;4.80;4.32;;;;;;;;;;5074925;28;20656;-87
2022/08/07 09:01:10;;;;;;;5.07;4.65;;;;;;;;;;5073689;28;20252;-88
2022/08/07 09:03:45;;;;;;;5.32;4.65;;;;;;;;;;5074233;28;20200;-87
2022/08/07 09:06:33;;;;;;;5.10;4.72;;;;;;;;;;5056095;28;20231;-87
2022/08/07 09:09:06;;;;;;;6.00;4.55;;;;;;;;;;5078618;28;20258;-88
2022/08/07 09:11:41;;;;;;;4.90;3.80;;;;;;;;;;5075204;28;20207;-89
2022/08/07 09:14:12;;;;;;;4.63;4.30;;;;;;;;;;5088047;28;20269;-87
2022/08/07 09:16:50;;;;;;;4.53;4.22;;;;;;;;;;5056066;28;20284;-88
2022/08/07 09:19:32;;;;;;;5.82;3.83;;;;;;;;;;5081587;28;20243;-87
2022/08/07 09:22:12;;;;;;;4.85;4.43;;;;;;;;;;5060782;28;20311;-85
2022/08/07 09:24:48;;;;;;;4.60;4.05;;;;;;;;;;5074545;28;20205;-86
2022/08/07 09:27:30;;;;;;;4.28;3.80;;;;;;;;;;5055315;28;20236;-87
2022/08/07 09:30:03;;;;;;;4.70;4.30;;;;;;;;;;5073689;28;20274;-86
2022/08/07 09:32:54;;;;;;;4.90;4.50;;;;;;;;;;5073542;28;20201;-87
2022/08/07 09:35:31;;;;;;;5.07;4.68;;;;;;;;;;5073355;28;20208;-88
2022/08/07 09:38:06;;;;;;;5.57;5.07;;;;;;;;;;5073145;28;20200;-87
2022/08/07 09:40:47;;;;;;;6.15;5.03;;;;;;;;;;5073137;28;20298;-87
2022/08/07 09:43:26;;;;;;;5.40;4.97;;;;;;;;;;5072737;28;20652;-87
2022/08/07 09:45:59;;;;;;;5.65;4.75;;;;;;;;;;5072754;28;20678;-87
2022/08/07 09:48:34;;;;;;;6.28;5.25;;;;;;;;;;5072018;28;20663;-86
2022/08/07 09:51:10;;;;;;;6.03;5.50;;;;;;;;;;5072847;28;20568;-87
2022/08/07 09:53:39;;;;;;;5.85;5.25;;;;;;;;;;5054963;28;20200;-87
2022/08/07 09:56:23;;;;;;;25.20;6.60;;;;;;;;;;5072607;28;20201;-87
2022/08/07 10:02:02;;;;;;;6.25;5.72;;;;;;;;;;5090097;27;20571;-87
2022/08/07 10:04:52;;;;;;;7.38;6.13;;;;;;;;;;5089900;28;20207;-86
2022/08/07 10:07:41;;;;;;;5.63;5.22;;;;;;;;;;5088244;28;20200;-87
2022/08/07 10:10:17;;;;;;;6.30;5.53;;;;;;;;;;5089668;28;20239;-87
2022/08/07 10:12:52;;;;;;;6.18;5.75;;;;;;;;;;5089594;28;20242;-85
2022/08/07 10:15:36;;;;;;;6.90;5.32;;;;;;;;;;5090028;28;20191;-89
2022/08/07 10:18:25;;;;;;;5.40;5.00;;;;;;;;;;5086863;28;20204;-85
2022/08/07 10:21:04;;;;;;;6.68;4.85;;;;;;;;;;5089323;28;20315;-86
2022/08/07 10:23:47;;;;;;;6.32;5.82;;;;;;;;;;5089233;28;20202;-85
2022/08/07 10:26:28;;;;;;;6.03;5.50;;;;;;;;;;5088184;28;20200;-88
2022/08/07 10:29:04;;;;;;;6.22;5.80;;;;;;;;;;5088162;28;20196;-88
2022/08/07 10:31:54;;;;;;;9.57;6.18;;;;;;;;;;5089285;28;20204;-89
2022/08/07 10:34:37;;;;;;;5.88;5.32;;;;;;;;;;5070397;28;20204;-87
2022/08/07 10:37:23;;;;;;;6.78;5.22;;;;;;;;;;5089210;28;20261;-88
2022/08/07 10:39:59;;;;;;;6.15;5.65;;;;;;;;;;5084365;28;20205;-87
2022/08/07 10:42:33;;;;;;;6.70;5.78;;;;;;;;;;5087324;28;20200;-87
2022/08/07 10:45:04;;;;;;;7.00;6.40;;;;;;;;;;5088084;28;20283;-87
2022/08/07 10:47:39;;;;;;;7.40;6.50;;;;;;;;;;5071533;28;20301;-87
2022/08/07 10:50:14;;;;;;;8.00;6.68;;;;;;;;;;5087817;28;20258;-90
2022/08/07 10:52:51;;;;;;;6.70;6.20;;;;;;;;;;5087752;28;20295;-87
2022/08/07 10:55:21;;;;;;;6.53;6.03;;;;;;;;;;5071343;28;20287;-87
2022/08/07 10:57:59;;;;;;;7.53;5.82;;;;;;;;;;5087746;28;20258;-87
2022/08/07 11:00:30;;;;;;;9.82;6.55;;;;;;;;;;5088664;28;20670;-87
2022/08/07 11:03:00;;;;;;;8.20;6.78;;;;;;;;;;5086898;28;20201;-87
2022/08/07 11:05:45;;;;;;;6.18;5.68;;;;;;;;;;5087102;28;20242;-87
2022/08/07 11:08:18;;;;;;;6.55;5.95;;;;;;;;;;5088872;28;20240;-89
2022/08/07 11:10:51;;;;;;;5.88;5.30;;;;;;;;;;5088077;28;20204;-87
2022/08/07 11:13:25;;;;;;;6.50;5.90;;;;;;;;;;5074238;28;20192;-88
2022/08/07 11:15:55;;;;;;;6.60;6.10;;;;;;;;;;5074021;28;20269;-88
2022/08/07 11:18:28;;;;;;;6.03;5.63;;;;;;;;;;5057464;28;20205;-88
2022/08/07 11:21:03;;;;;;;7.03;6.53;;;;;;;;;;5073161;28;20225;-88
2022/08/07 11:23:36;;;;;;;7.45;6.75;;;;;;;;;;5074739;28;20204;-88
2022/08/07 11:26:09;;;;;;;6.85;6.35;;;;;;;;;;5071958;28;20201;-87
2022/08/07 11:28:40;;;;;;;6.53;6.03;;;;;;;;;;5073571;28;20623;-88
2022/08/07 11:31:13;;;;;;;6.82;6.22;;;;;;;;;;5089890;28;20205;-88
2022/08/07 11:33:46;;;;;;;6.63;6.03;;;;;;;;;;5073281;28;20278;-88
2022/08/07 11:36:33;;;;;;;7.32;6.72;;;;;;;;;;5074574;28;20212;-87
2022/08/07 11:39:06;;;;;;;6.47;5.97;;;;;;;;;;5087160;28;20201;-90
2022/08/07 11:41:40;;;;;;;6.72;6.00;;;;;;;;;;5053597;28;20634;-88
2022/08/07 11:44:14;;;;;;;5.70;5.25;;;;;;;;;;5056202;28;20661;-88
2022/08/07 11:46:49;;;;;;;7.68;6.38;;;;;;;;;;5063696;28;20205;-87
2022/08/07 11:49:51;;;;;;;6.90;6.32;;;;;;;;;;5054173;28;20220;-89
2022/08/07 11:52:31;;;;;;;7.38;6.53;;;;;;;;;;5032250;28;20251;-89
2022/08/07 11:55:04;;;;;;;6.15;5.72;;;;;;;;;;5055792;28;20215;-90
2022/08/07 11:57:36;;;;;;;6.57;6.07;;;;;;;;;;5072162;28;20675;-88
2022/08/07 12:00:09;;;;;;;8.48;7.72;;;;;;;;;;5053212;28;20221;-89
2022/08/07 12:03:06;;;;;;;8.02;7.22;;;;;;;;;;5068319;28;20197;-88
2022/08/07 12:05:45;;;;;;;8.13;7.32;;;;;;;;;;5054313;28;20281;-90
2022/08/07 12:08:19;;;;;;;8.77;8.02;;;;;;;;;;5068573;28;20210;-89
2022/08/07 12:10:49;;;;;;;8.05;7.25;;;;;;;;;;5052296;28;20197;-88
2022/08/07 12:13:21;;;;;;;7.85;7.18;;;;;;;;;;5089482;28;20204;-86
2022/08/07 12:15:52;;;;;;;8.48;7.75;;;;;;;;;;5057890;28;20213;-87
2022/08/07 12:18:23;;;;;;;12.30;8.23;;;;;;;;;;5057895;28;20219;-86
2022/08/07 12:21:00;;;;;;;8.98;8.07;;;;;;;;;;5073879;28;20235;-87
2022/08/07 12:23:37;;;;;;;8.48;7.88;;;;;;;;;;5071786;28;20205;-88
2022/08/07 12:26:06;;;;;;;8.60;7.82;;;;;;;;;;5073833;28;20196;-88
2022/08/07 12:28:41;;;;;;;8.93;8.27;;;;;;;;;;5053820;28;20210;-94
2022/08/07 12:31:13;;;;;;;8.35;7.57;;;;;;;;;;5085349;28;20267;-90
2022/08/07 12:33:41;;;;;;;8.30;7.60;;;;;;;;;;5052333;28;20198;-93
2022/08/07 12:36:09;;;;;;;8.38;7.78;;;;;;;;;;5053112;28;20562;-91
2022/08/07 12:38:38;;;;;;;8.38;7.68;;;;;;;;;;5054050;28;20209;-90
2022/08/07 12:41:06;;;;;;;8.95;7.57;;;;;;;;;;5054212;28;20225;-90
2022/08/07 12:43:35;;;;;;;8.43;7.55;;;;;;;;;;5053973;28;20679;-91
2022/08/07 12:46:11;;;;;;;8.10;7.50;;;;;;;;;;5068788;28;20201;-90
2022/08/07 12:48:45;;;;;;;8.32;7.57;;;;;;;;;;5052465;28;20552;-89
2022/08/07 12:51:14;;;;;;;7.05;6.43;;;;;;;;;;5061532;28;20201;-91
2022/08/07 12:53:45;;;;;;;9.85;7.97;;;;;;;;;;5058612;28;20271;-90
2022/08/07 12:56:27;;;;;;;8.05;7.25;;;;;;;;;;5052715;28;20744;-89
2022/08/07 12:58:55;;;;;;;8.48;7.78;;;;;;;;;;5053259;28;20225;-89
2022/08/07 13:01:42;;;;;;;8.50;7.80;;;;;;;;;;5052217;28;20229;-89
2022/08/07 13:04:38;;;;;;;9.43;7.85;;;;;;;;;;5066227;28;20318;-89
2022/08/07 13:07:50;;;;;;;7.72;7.13;;;;;;;;;;5075636;28;20212;-86
2022/08/07 13:10:47;;;;;;;7.47;6.97;;;;;;;;;;5047050;28;20223;-87
2022/08/07 13:13:29;;;;;;;6.53;6.07;;;;;;;;;;5072317;28;20284;-87
2022/08/07 13:16:05;;;;;;;7.63;5.90;;;;;;;;;;5071905;28;20212;-86
2022/08/07 13:18:38;;;;;;;7.15;6.45;;;;;;;;;;5071893;28;20196;-90
2022/08/07 13:21:09;;;;;;;6.70;6.10;;;;;;;;;;5071683;28;20701;-85
2022/08/07 13:23:45;;;;;;;6.15;5.63;;;;;;;;;;5052981;28;20678;-86
2022/08/07 13:26:22;;;;;;;6.95;6.45;;;;;;;;;;5051450;28;20201;-87
2022/08/07 13:28:58;;;;;;;6.38;5.88;;;;;;;;;;5052038;28;20197;-87
2022/08/07 13:31:31;;;;;;;6.07;5.68;;;;;;;;;;5067800;28;20626;-87
2022/08/07 13:34:10;;;;;;;9.25;5.78;;;;;;;;;;5051918;28;20205;-87
2022/08/07 13:36:42;;;;;;;7.47;5.20;;;;;;;;;;5051046;28;20208;-87
2022/08/07 13:39:13;;;;;;;5.90;4.32;;;;;;;;;;5068184;28;20572;-88
2022/08/07 13:41:45;;;;;;;5.28;4.72;;;;;;;;;;5051011;28;20232;-88
2022/08/07 13:44:14;;;;;;;4.72;4.38;;;;;;;;;;5052100;28;20675;-87
2022/08/07 13:46:46;;;;;;;5.60;4.57;;;;;;;;;;5051956;28;20204;-87
2022/08/07 13:49:19;;;;;;;5.63;4.53;;;;;;;;;;5052015;28;20205;-87
2022/08/07 13:51:48;;;;;;;4.97;4.57;;;;;;;;;;5050961;28;20217;-87
2022/08/07 13:54:15;;;;;;;4.10;3.80;;;;;;;;;;5051998;28;20703;-87
2022/08/07 13:56:45;;;;;;;5.37;4.87;;;;;;;;;;5052107;28;20206;-90
2022/08/07 14:09:53;;;;;;;10.13;6.07;;;;;;;;;;3217252;28;20293;-86
2022/08/07 14:12:30;;;;;;;6.40;5.80;;;;;;;;;;5054783;28;20247;-87
2022/08/07 14:15:04;;;;;;;6.50;6.00;;;;;;;;;;5072549;28;20196;-88
2022/08/07 14:17:36;;;;;;;13.23;7.30;;;;;;;;;;5071567;28;20201;-85
2022/08/07 14:20:09;;;;;;;12.10;7.57;;;;;;;;;;5071053;28;20284;-87
2022/08/07 14:22:37;;;;;;;8.77;6.30;;;;;;;;;;5071131;28;20220;-88
2022/08/07 14:25:12;;;;;;;7.73;6.57;;;;;;;;;;5055252;28;20224;-88
2022/08/07 14:27:45;;;;;;;10.37;6.63;;;;;;;;;;5072620;28;20201;-88
2022/08/07 14:30:15;;;;;;;6.67;6.07;;;;;;;;;;5072975;28;20205;-89
2022/08/07 14:32:44;;;;;;;9.50;6.33;;;;;;;;;;5072336;28;20193;-88
2022/08/07 14:35:17;;;;;;;6.20;5.70;;;;;;;;;;5072133;28;20240;-88
2022/08/07 14:37:48;;;;;;;7.53;5.90;;;;;;;;;;5071969;28;20224;-87
2022/08/07 14:40:17;;;;;;;7.30;5.50;;;;;;;;;;5070700;28;20201;-88
2022/08/07 14:42:46;;;;;;;5.93;5.43;;;;;;;;;;5071642;28;20346;-88
2022/08/07 14:45:13;;;;;;;6.57;5.07;;;;;;;;;;5071086;28;20687;-88
2022/08/07 14:47:41;;;;;;;7.40;6.07;;;;;;;;;;5074166;28;20258;-89
2022/08/07 14:50:17;;;;;;;8.63;6.33;;;;;;;;;;5058654;28;20219;-89
2022/08/07 14:52:44;;;;;;;7.37;6.60;;;;;;;;;;5074930;28;20197;-88
2022/08/07 14:55:14;;;;;;;6.63;5.83;;;;;;;;;;5074425;28;20201;-88
2022/08/07 14:57:41;;;;;;;7.17;6.27;;;;;;;;;;5074556;28;20210;-86
2022/08/07 15:00:12;;;;;;;9.27;7.60;;;;;;;;;;5075118;28;20201;-87
2022/08/07 15:02:39;;;;;;;15.20;7.67;;;;;;;;;;5075494;28;20220;-87
2022/08/07 15:05:09;;;;;;;9.57;6.47;;;;;;;;;;5057543;28;20621;-86
2022/08/07 15:07:37;;;;;;;7.63;6.70;;;;;;;;;;5074097;28;20631;-86
2022/08/07 15:10:05;;;;;;;6.03;5.43;;;;;;;;;;5075050;28;20667;-87
2022/08/07 15:16:02;;;;;;;6.53;5.60;;;;;;;;;;5075180;28;20631;-86
2022/08/07 15:18:33;;;;;;;6.53;6.03;;;;;;;;;;5075250;28;20200;-86
2022/08/07 15:21:03;;;;;;;6.50;5.90;;;;;;;;;;5073718;28;20200;-86
2022/08/07 15:23:33;;;;;;;7.37;6.67;;;;;;;;;;5074659;28;20193;-86
2022/08/07 15:26:01;;;;;;;8.23;7.63;;;;;;;;;;5074454;28;20292;-86
2022/08/07 15:28:29;;;;;;;6.63;6.03;;;;;;;;;;5050170;28;20202;-86